KILN/ILN METAR and TAF weather

Enter ICAO airport designator
Station Type Date Time Source
KILN METAR 2021/09/24 04:54 UTC NOAA

KILN 240454Z AUTO 21004KT 10SM CLR 08/07 A3003 RMK AO2 SLP176 T00830072 401720083


Station Type Date Time Source
KILN Decoded METAR 2021/09/24 04:54 UTC NOAA

WILMINGTON INDUSTRIAL AIRPORT , OH, United States (KILN) 39-26N 083-47W 332M
Sep 24, 2021 - 12:54 AM EDT / 2021.09.24 0454 UTC
Wind: from the SSW (210 degrees) at 5 MPH (4 KT):0
Visibility: 10 mile(s):0
Sky conditions: clear
Temperature: 46.9 F (8.3 C)
Dew Point: 45.0 F (7.2 C)
Relative Humidity: 92%
Pressure (altimeter): 30.03 in. Hg (1016 hPa)
ob: KILN 240454Z AUTO 21004KT 10SM CLR 08/07 A3003 RMK AO2 SLP176 T00830072 401720083
cycle: 5

Station Type Date Time Source
KILN TAF 2021/09/23 18:22 UTC NOAA

TAF KILN 231720Z 2318/2418 27015G23KT P6SM BKN035
FM232200 26010KT P6SM SCT060
FM240200 24006KT P6SM FEW070
FM240600 22005KT P6SM FEW250
FM241400 24009KT P6SM SKC

Example: see airport list